Time;durP1;ratioP1;P1;durP2;ratioP2;P2;SDS_P1;SDS_P2;PMS_P1;PMS_P2;Temp;Humidity;BMP_temperature;BMP_pressure;BME280_temperature;BME280_humidity;BME280_pressure;Samples;Min_cycle;Max_cycle;Signal;HPM_P1;HPM_P2
2021/06/15 00:01:17;;;;;;;;;;;16.10;89.60;;;;;;5018015;28;20023;-69
2021/06/15 00:03:43;;;;;;;;;;;16.00;89.90;;;;;;5019041;28;19928;-68
2021/06/15 00:06:08;;;;;;;;;;;16.00;90.00;;;;;;5021857;28;19928;-68
2021/06/15 00:08:34;;;;;;;;;;;16.00;90.10;;;;;;5018544;28;20108;-69
2021/06/15 00:10:59;;;;;;;;;;;16.00;89.90;;;;;;5020537;28;19974;-69
2021/06/15 00:13:25;;;;;;;;;;;16.00;89.90;;;;;;5021823;28;20408;-68
2021/06/15 00:15:51;;;;;;;;;;;16.00;89.70;;;;;;5021514;28;19977;-69
2021/06/15 00:18:19;;;;;;;;;;;16.00;89.30;;;;;;5022138;28;19952;-69
2021/06/15 00:20:46;;;;;;;;;;;16.00;89.30;;;;;;5021429;28;19927;-69
2021/06/15 00:23:12;;;;;;;;;;;15.90;89.30;;;;;;5022145;28;19913;-69
2021/06/15 00:25:37;;;;;;;;;;;15.90;89.30;;;;;;5019387;28;19967;-70
2021/06/15 00:28:03;;;;;;;;;;;15.90;89.60;;;;;;5022252;28;19951;-68
2021/06/15 00:30:29;;;;;;;;;;;15.90;89.60;;;;;;5019606;28;20253;-69
2021/06/15 00:32:55;;;;;;;;;;;15.80;89.90;;;;;;5021169;28;20019;-69
2021/06/15 00:35:20;;;;;;;;;;;15.80;89.60;;;;;;5019382;28;20012;-69
2021/06/15 00:37:46;;;;;;;;;;;15.80;89.80;;;;;;5021527;28;20015;-69
2021/06/15 00:40:12;;;;;;;;;;;15.70;90.10;;;;;;5018649;28;19917;-69
2021/06/15 00:42:38;;;;;;;;;;;15.70;90.00;;;;;;5021231;28;20079;-69
2021/06/15 00:45:05;;;;;;;;;;;15.60;90.30;;;;;;5019462;28;20020;-69
2021/06/15 00:47:30;;;;;;;;;;;15.60;90.30;;;;;;5036074;28;19982;-69
2021/06/15 00:49:56;;;;;;;;;;;15.60;90.20;;;;;;5020559;28;20344;-69
2021/06/15 00:52:22;;;;;;;;;;;15.60;90.30;;;;;;5020983;28;19913;-68
2021/06/15 00:54:49;;;;;;;;;;;15.60;90.30;;;;;;5019472;28;19928;-69
2021/06/15 00:57:18;;;;;;;;;;;15.50;90.30;;;;;;5022542;28;20222;-68
2021/06/15 00:59:43;;;;;;;;;;;15.50;90.30;;;;;;5019573;28;20309;-70
2021/06/15 01:02:09;;;;;;;;;;;15.50;90.50;;;;;;5034241;28;19913;-68
2021/06/15 01:04:34;;;;;;;;;;;15.50;90.10;;;;;;5018412;28;19921;-69
2021/06/15 01:07:03;;;;;;;;;;;15.40;90.50;;;;;;5005987;28;20219;-69
2021/06/15 01:09:32;;;;;;;;;;;15.40;90.10;;;;;;5016153;28;20004;-67
2021/06/15 01:12:09;;;;;;;;;;;15.30;90.30;;;;;;5021320;28;19913;-68
2021/06/15 01:14:44;;;;;;;;;;;15.30;90.60;;;;;;5020280;28;19948;-69
2021/06/15 01:17:11;;;;;;;;;;;15.20;90.50;;;;;;5011033;28;20387;-69
2021/06/15 01:19:40;;;;;;;;;;;15.20;90.70;;;;;;5020623;28;20005;-68
2021/06/15 01:22:14;;;;;;;;;;;15.20;90.60;;;;;;5018603;28;21235;-69
2021/06/15 01:24:49;;;;;;;;;;;15.20;90.80;;;;;;5027566;28;19969;-69
2021/06/15 01:27:28;;;;;;;;;;;15.10;90.70;;;;;;5020334;28;19928;-69
2021/06/15 01:29:55;;;;;;;;;;;15.10;90.90;;;;;;5019771;28;20428;-69
2021/06/15 01:32:27;;;;;;;;;;;15.10;90.80;;;;;;5023306;28;19917;-69
2021/06/15 01:34:54;;;;;;;;;;;15.10;90.80;;;;;;5017809;28;19913;-69
2021/06/15 01:37:30;;;;;;;;;;;15.00;90.90;;;;;;5004313;28;19909;-68
2021/06/15 01:40:00;;;;;;;;;;;15.00;91.10;;;;;;5011716;28;20000;-68
2021/06/15 01:42:32;;;;;;;;;;;15.00;91.30;;;;;;5020330;28;19932;-69
2021/06/15 01:45:03;;;;;;;;;;;15.00;91.20;;;;;;5011780;28;20243;-69
2021/06/15 01:47:29;;;;;;;;;;;15.00;91.10;;;;;;5029325;28;19940;-68
2021/06/15 01:49:58;;;;;;;;;;;15.10;91.20;;;;;;5018191;28;20109;-69
2021/06/15 01:52:26;;;;;;;;;;;15.00;90.90;;;;;;5021920;28;19983;-70
2021/06/15 01:54:52;;;;;;;;;;;15.00;91.00;;;;;;5020316;28;19939;-69
2021/06/15 01:57:19;;;;;;;;;;;15.00;90.80;;;;;;5012648;28;19929;-68
2021/06/15 01:59:45;;;;;;;;;;;15.00;91.10;;;;;;5019054;28;19944;-69
2021/06/15 02:02:12;;;;;;;;;;;15.10;91.00;;;;;;5019105;28;19966;-68
2021/06/15 02:04:41;;;;;;;;;;;15.00;90.80;;;;;;5018052;28;19982;-69
2021/06/15 02:07:07;;;;;;;;;;;15.00;91.10;;;;;;5021926;28;20497;-69
2021/06/15 02:09:36;;;;;;;;;;;15.00;91.20;;;;;;5018374;28;19924;-69
2021/06/15 02:12:02;;;;;;;;;;;14.90;91.30;;;;;;5019946;28;19950;-69
2021/06/15 02:14:28;;;;;;;;;;;14.90;91.40;;;;;;5019273;28;20402;-69
2021/06/15 02:16:55;;;;;;;;;;;15.00;91.30;;;;;;5012973;28;19921;-68
2021/06/15 02:19:21;;;;;;;;;;;14.90;91.40;;;;;;5005887;28;19921;-69
2021/06/15 02:21:48;;;;;;;;;;;15.00;91.40;;;;;;5013937;28;19956;-69
2021/06/15 02:24:14;;;;;;;;;;;15.00;91.20;;;;;;5021259;28;19962;-68
2021/06/15 02:26:40;;;;;;;;;;;15.00;91.10;;;;;;5012004;28;19972;-68
2021/06/15 02:29:06;;;;;;;;;;;14.90;91.50;;;;;;5021534;28;20223;-69
2021/06/15 02:31:34;;;;;;;;;;;14.90;91.80;;;;;;5016367;28;19917;-69
2021/06/15 02:34:06;;;;;;;;;;;15.00;91.50;;;;;;5015733;28;20389;-69
2021/06/15 02:36:33;;;;;;;;;;;15.00;91.10;;;;;;5011407;28;19920;-70
2021/06/15 02:39:01;;;;;;;;;;;15.10;90.90;;;;;;5008188;28;19997;-67
2021/06/15 02:41:29;;;;;;;;;;;15.00;91.10;;;;;;5021196;28;20026;-70
2021/06/15 02:43:59;;;;;;;;;;;15.00;91.00;;;;;;5021972;28;19917;-70
2021/06/15 02:46:25;;;;;;;;;;;15.00;91.00;;;;;;5024222;28;19913;-68
2021/06/15 02:48:52;;;;;;;;;;;15.00;91.00;;;;;;5020409;28;19929;-69
2021/06/15 02:51:18;;;;;;;;;;;14.90;91.30;;;;;;5021399;28;20344;-69
2021/06/15 02:53:47;;;;;;;;;;;15.00;91.00;;;;;;5025414;28;20023;-69
2021/06/15 02:56:15;;;;;;;;;;;15.00;90.60;;;;;;5016966;28;20318;-70
2021/06/15 02:58:41;;;;;;;;;;;15.00;90.70;;;;;;5025239;28;20024;-70
2021/06/15 03:01:06;;;;;;;;;;;15.00;90.80;;;;;;5018869;28;20015;-68
2021/06/15 03:03:34;;;;;;;;;;;15.00;90.60;;;;;;5018087;28;20345;-69
2021/06/15 03:06:00;;;;;;;;;;;14.80;90.90;;;;;;5024195;28;19917;-69
2021/06/15 03:08:25;;;;;;;;;;;14.90;90.80;;;;;;5025711;28;19940;-68
2021/06/15 03:10:51;;;;;;;;;;;14.90;90.80;;;;;;5018443;28;20402;-69
2021/06/15 03:13:35;;;;;;;;;;;14.90;90.50;;;;;;5022679;28;19913;-69
2021/06/15 03:16:03;;;;;;;;;;;14.90;90.50;;;;;;5014867;28;20354;-69
2021/06/15 03:18:44;;;;;;;;;;;14.80;90.40;;;;;;5009320;28;20061;-68
2021/06/15 03:21:11;;;;;;;;;;;14.80;90.10;;;;;;5013062;28;20350;-68
2021/06/15 03:23:41;;;;;;;;;;;14.80;90.10;;;;;;5018798;28;19913;-68
2021/06/15 03:26:09;;;;;;;;;;;14.80;90.00;;;;;;5022808;28;19917;-68
2021/06/15 03:28:36;;;;;;;;;;;14.90;89.90;;;;;;5021917;28;19931;-69
2021/06/15 03:31:02;;;;;;;;;;;14.90;89.80;;;;;;5024996;28;19999;-67
2021/06/15 03:33:28;;;;;;;;;;;14.80;89.80;;;;;;5021063;28;19917;-69
2021/06/15 03:35:55;;;;;;;;;;;14.90;89.70;;;;;;5024840;28;19913;-69
2021/06/15 03:38:22;;;;;;;;;;;14.90;89.50;;;;;;5016250;28;19920;-69
2021/06/15 03:40:50;;;;;;;;;;;14.90;89.40;;;;;;5022737;28;19963;-69
2021/06/15 03:43:16;;;;;;;;;;;15.00;89.20;;;;;;5018769;28;20381;-68
2021/06/15 03:45:46;;;;;;;;;;;15.00;89.30;;;;;;5021657;28;19913;-69
2021/06/15 03:48:14;;;;;;;;;;;15.00;89.40;;;;;;5024795;28;19917;-68
2021/06/15 03:50:40;;;;;;;;;;;15.00;89.20;;;;;;5025426;28;19913;-68
2021/06/15 03:53:08;;;;;;;;;;;15.00;89.20;;;;;;5023560;28;19913;-68
2021/06/15 03:55:36;;;;;;;;;;;15.00;89.30;;;;;;5023787;28;19967;-69
2021/06/15 03:58:03;;;;;;;;;;;15.00;89.10;;;;;;5014779;28;19913;-67
2021/06/15 04:00:29;;;;;;;;;;;15.00;89.40;;;;;;5020760;28;19969;-68
2021/06/15 04:02:55;;;;;;;;;;;15.00;89.20;;;;;;5023682;28;19959;-67
2021/06/15 04:05:23;;;;;;;;;;;15.00;89.50;;;;;;5024726;28;19909;-69
2021/06/15 04:07:50;;;;;;;;;;;15.00;89.10;;;;;;5014729;28;19929;-68
2021/06/15 04:10:16;;;;;;;;;;;15.00;89.00;;;;;;5016782;28;20397;-69
2021/06/15 04:12:42;;;;;;;;;;;15.00;88.80;;;;;;5021000;28;20079;-69
2021/06/15 04:15:08;;;;;;;;;;;15.10;88.30;;;;;;5020823;28;19916;-69
2021/06/15 04:17:39;;;;;;;;;;;15.00;87.90;;;;;;5021739;28;20334;-67
2021/06/15 04:20:06;;;;;;;;;;;15.00;88.00;;;;;;5023982;28;19921;-68
2021/06/15 04:22:35;;;;;;;;;;;15.10;87.90;;;;;;5023148;28;19913;-68
2021/06/15 04:25:05;;;;;;;;;;;15.00;87.80;;;;;;5024163;28;19917;-68
2021/06/15 04:27:31;;;;;;;;;;;15.00;87.50;;;;;;5020203;28;20027;-67
2021/06/15 04:29:57;;;;;;;;;;;14.90;88.40;;;;;;5018805;28;19975;-68
2021/06/15 04:32:30;;;;;;;;;;;15.00;88.50;;;;;;5023325;28;19922;-68
2021/06/15 04:34:58;;;;;;;;;;;15.00;88.70;;;;;;5022761;28;19917;-69
2021/06/15 04:37:25;;;;;;;;;;;15.00;88.30;;;;;;5029227;28;19924;-69
2021/06/15 04:39:57;;;;;;;;;;;15.00;88.20;;;;;;5010501;28;19976;-68
2021/06/15 04:42:31;;;;;;;;;;;15.00;88.70;;;;;;5022054;28;20257;-69
2021/06/15 04:44:57;;;;;;;;;;;14.90;88.60;;;;;;5017408;28;19914;-68
2021/06/15 04:47:25;;;;;;;;;;;15.00;88.40;;;;;;5014004;28;19928;-68
2021/06/15 04:50:00;;;;;;;;;;;15.00;88.10;;;;;;5013706;28;20251;-69
2021/06/15 04:52:27;;;;;;;;;;;15.10;88.10;;;;;;5020938;28;19964;-68
2021/06/15 04:54:53;;;;;;;;;;;15.10;87.60;;;;;;5021854;28;19917;-67
2021/06/15 04:57:20;;;;;;;;;;;15.10;88.10;;;;;;5021054;28;19991;-68
2021/06/15 04:59:48;;;;;;;;;;;15.00;87.20;;;;;;5021021;28;19917;-68
2021/06/15 05:02:13;;;;;;;;;;;15.00;87.30;;;;;;5018752;28;19957;-69
2021/06/15 05:04:39;;;;;;;;;;;15.00;85.90;;;;;;5019759;28;19988;-67
2021/06/15 05:07:05;;;;;;;;;;;15.00;86.10;;;;;;5022451;28;19991;-67
2021/06/15 05:09:33;;;;;;;;;;;15.10;86.10;;;;;;5018064;28;19996;-67
2021/06/15 05:11:59;;;;;;;;;;;15.10;85.70;;;;;;5021204;28;19956;-67
2021/06/15 05:14:27;;;;;;;;;;;15.10;85.20;;;;;;5008291;28;20360;-69
2021/06/15 05:16:52;;;;;;;;;;;15.00;85.40;;;;;;5012210;28;20028;-68
2021/06/15 05:19:18;;;;;;;;;;;15.20;85.20;;;;;;5007497;28;19992;-68
2021/06/15 05:21:54;;;;;;;;;;;15.20;85.00;;;;;;5004624;28;19917;-68
2021/06/15 05:24:38;;;;;;;;;;;15.10;84.40;;;;;;5012137;28;19941;-67
2021/06/15 05:27:04;;;;;;;;;;;15.00;84.80;;;;;;5015521;28;20287;-68
2021/06/15 05:29:30;;;;;;;;;;;15.10;85.30;;;;;;5020632;28;19932;-70
2021/06/15 05:31:55;;;;;;;;;;;15.10;85.00;;;;;;5005442;28;19910;-69
2021/06/15 05:34:21;;;;;;;;;;;15.10;84.30;;;;;;5006112;28;20258;-68
2021/06/15 05:36:46;;;;;;;;;;;15.20;84.60;;;;;;5003760;28;19913;-68
2021/06/15 05:39:12;;;;;;;;;;;15.20;84.20;;;;;;5008067;28;19917;-68
2021/06/15 05:41:37;;;;;;;;;;;15.20;84.00;;;;;;5020784;28;19984;-68
2021/06/15 05:44:03;;;;;;;;;;;15.30;83.60;;;;;;5008575;28;20320;-69
2021/06/15 05:46:28;;;;;;;;;;;15.30;83.70;;;;;;5005164;28;19917;-68
2021/06/15 05:48:54;;;;;;;;;;;15.50;83.40;;;;;;5007847;28;19922;-68
2021/06/15 05:51:19;;;;;;;;;;;15.60;83.00;;;;;;5006155;28;19946;-68
2021/06/15 05:53:45;;;;;;;;;;;15.70;82.20;;;;;;5007539;28;19913;-68
2021/06/15 05:56:10;;;;;;;;;;;15.80;81.90;;;;;;5003751;28;19920;-68
2021/06/15 05:58:36;;;;;;;;;;;15.90;82.40;;;;;;5009435;28;20334;-67
2021/06/15 06:01:01;;;;;;;;;;;16.00;81.10;;;;;;5010359;28;19927;-68
2021/06/15 06:03:38;;;;;;;;;;;16.10;80.90;;;;;;5014598;28;20516;-68
2021/06/15 06:08:47;;;;;;;;;;;15.90;80.70;;;;;;5010086;28;20418;-68
2021/06/15 06:11:13;;;;;;;;;;;16.00;79.60;;;;;;5001862;28;19981;-69
2021/06/15 06:13:38;;;;;;;;;;;16.30;79.70;;;;;;5011797;28;20102;-68
2021/06/15 06:16:08;;;;;;;;;;;16.40;78.90;;;;;;5013458;28;20366;-69
2021/06/15 06:18:35;;;;;;;;;;;16.40;77.90;;;;;;5016607;28;19986;-68
2021/06/15 06:21:03;;;;;;;;;;;16.60;78.60;;;;;;5008209;28;19957;-69
2021/06/15 06:23:29;;;;;;;;;;;16.50;77.10;;;;;;5009916;28;19979;-69
2021/06/15 06:25:55;;;;;;;;;;;16.60;77.60;;;;;;5007153;28;19910;-69
2021/06/15 06:28:20;;;;;;;;;;;16.70;76.00;;;;;;5017162;28;20317;-68
2021/06/15 06:30:46;;;;;;;;;;;16.80;76.50;;;;;;5009511;28;19913;-68
2021/06/15 06:33:11;;;;;;;;;;;16.70;75.80;;;;;;5040674;28;20495;-69
2021/06/15 06:35:37;;;;;;;;;;;16.80;75.80;;;;;;5007293;28;20139;-68
2021/06/15 06:38:03;;;;;;;;;;;17.00;74.70;;;;;;5015762;28;19992;-69
2021/06/15 06:40:29;;;;;;;;;;;17.00;74.00;;;;;;5025187;28;19925;-68
2021/06/15 06:42:55;;;;;;;;;;;16.90;73.90;;;;;;5023282;28;19976;-68
2021/06/15 06:45:20;;;;;;;;;;;17.00;73.80;;;;;;5036527;28;19997;-68
2021/06/15 06:47:46;;;;;;;;;;;17.20;74.70;;;;;;5022660;28;19917;-69
2021/06/15 06:50:11;;;;;;;;;;;17.00;72.50;;;;;;5011145;28;20007;-69
2021/06/15 06:52:37;;;;;;;;;;;17.00;73.50;;;;;;5012628;28;19925;-70
2021/06/15 06:55:04;;;;;;;;;;;17.00;72.00;;;;;;5014301;28;19975;-70
2021/06/15 06:57:29;;;;;;;;;;;16.90;72.10;;;;;;5025015;28;21494;-69
2021/06/15 06:59:55;;;;;;;;;;;17.00;72.80;;;;;;5023876;28;19925;-69
2021/06/15 07:02:20;;;;;;;;;;;17.00;73.40;;;;;;5024426;28;19964;-69
2021/06/15 07:04:46;;;;;;;;;;;17.00;71.70;;;;;;5015674;28;20000;-69
2021/06/15 07:07:11;;;;;;;;;;;17.30;71.30;;;;;;5023777;28;19970;-70
2021/06/15 07:09:37;;;;;;;;;;;17.50;70.70;;;;;;5016227;28;19920;-69
2021/06/15 07:12:02;;;;;;;;;;;17.90;69.30;;;;;;5010627;28;19973;-70
2021/06/15 07:14:28;;;;;;;;;;;18.20;69.70;;;;;;5017562;28;19921;-69
2021/06/15 07:16:53;;;;;;;;;;;18.20;67.50;;;;;;5017232;28;19952;-70
2021/06/15 07:19:19;;;;;;;;;;;18.10;64.90;;;;;;5018531;28;20075;-69
2021/06/15 07:21:44;;;;;;;;;;;18.00;66.60;;;;;;5026319;28;20334;-70
2021/06/15 07:24:10;;;;;;;;;;;17.90;66.70;;;;;;5012907;28;19976;-69
2021/06/15 07:26:35;;;;;;;;;;;17.50;67.40;;;;;;5037381;28;19928;-70
2021/06/15 07:29:01;;;;;;;;;;;17.40;67.30;;;;;;5020920;28;20087;-70
2021/06/15 07:31:27;;;;;;;;;;;17.70;68.20;;;;;;5025250;28;20007;-70
2021/06/15 07:33:52;;;;;;;;;;;17.60;67.50;;;;;;5018136;28;20068;-70
2021/06/15 07:36:18;;;;;;;;;;;17.80;70.00;;;;;;5009138;28;20271;-70
2021/06/15 07:38:43;;;;;;;;;;;18.00;67.00;;;;;;5021876;28;19917;-70
2021/06/15 07:41:09;;;;;;;;;;;17.90;67.60;;;;;;5030814;28;19947;-70
2021/06/15 07:43:37;;;;;;;;;;;18.20;70.20;;;;;;5020957;28;19973;-69
2021/06/15 07:46:03;;;;;;;;;;;18.20;64.90;;;;;;5007919;28;19960;-70
2021/06/15 07:48:28;;;;;;;;;;;18.90;64.80;;;;;;5013913;28;20380;-70
2021/06/15 07:50:54;;;;;;;;;;;18.90;62.20;;;;;;5020195;28;19921;-71
2021/06/15 07:53:19;;;;;;;;;;;19.20;60.60;;;;;;5015230;28;20391;-71
2021/06/15 07:55:45;;;;;;;;;;;19.90;61.70;;;;;;5024171;28;19929;-71
2021/06/15 07:58:13;;;;;;;;;;;20.20;62.40;;;;;;5023351;28;19925;-70
2021/06/15 08:00:39;;;;;;;;;;;19.80;58.00;;;;;;5015710;28;19924;-70
2021/06/15 08:03:04;;;;;;;;;;;19.90;59.10;;;;;;5021055;28;20044;-71
2021/06/15 08:05:30;;;;;;;;;;;20.30;59.70;;;;;;5019592;28;19921;-71
2021/06/15 08:07:55;;;;;;;;;;;20.50;56.40;;;;;;5022155;28;20328;-71
2021/06/15 08:10:21;;;;;;;;;;;20.40;55.10;;;;;;5023021;28;20420;-71
2021/06/15 08:12:47;;;;;;;;;;;20.50;55.40;;;;;;5012588;28;20349;-71
2021/06/15 08:15:13;;;;;;;;;;;20.10;56.70;;;;;;5014697;28;19920;-71
2021/06/15 08:17:38;;;;;;;;;;;20.00;58.20;;;;;;5016295;28;20235;-70
2021/06/15 08:20:04;;;;;;;;;;;20.20;56.60;;;;;;5021641;28;19917;-70
2021/06/15 08:22:30;;;;;;;;;;;20.40;56.40;;;;;;5019037;28;19917;-70
2021/06/15 08:24:56;;;;;;;;;;;20.40;57.00;;;;;;5019503;28;19916;-70
2021/06/15 08:27:22;;;;;;;;;;;20.60;55.90;;;;;;5021005;28;20067;-69
2021/06/15 08:29:48;;;;;;;;;;;20.50;55.90;;;;;;5020878;28;20020;-70
2021/06/15 08:32:14;;;;;;;;;;;20.80;55.10;;;;;;5021335;28;19948;-70
2021/06/15 08:34:39;;;;;;;;;;;20.70;56.30;;;;;;5012434;28;20526;-70
2021/06/15 08:37:05;;;;;;;;;;;20.90;55.70;;;;;;5019566;28;20099;-70
2021/06/15 08:39:30;;;;;;;;;;;20.90;56.20;;;;;;5016012;28;19925;-71
2021/06/15 08:41:56;;;;;;;;;;;21.00;52.90;;;;;;5014136;28;20086;-70
2021/06/15 08:44:21;;;;;;;;;;;21.20;51.90;;;;;;5021319;28;19919;-68
2021/06/15 08:46:47;;;;;;;;;;;21.50;53.80;;;;;;5019738;28;20365;-71
2021/06/15 08:49:12;;;;;;;;;;;21.70;51.70;;;;;;5014584;28;19924;-71
2021/06/15 08:51:40;;;;;;;;;;;21.80;54.40;;;;;;5011907;28;20003;-71
2021/06/15 08:54:11;;;;;;;;;;;21.90;50.30;;;;;;5017114;28;20005;-72
2021/06/15 08:56:37;;;;;;;;;;;22.00;53.00;;;;;;5009581;28;20000;-70
2021/06/15 08:59:29;;;;;;;;;;;21.60;54.10;;;;;;5021885;28;20059;-70
2021/06/15 09:02:13;;;;;;;;;;;20.50;55.00;;;;;;5020086;28;19935;-73
2021/06/15 09:04:38;;;;;;;;;;;20.10;56.20;;;;;;5017024;28;19921;-71
2021/06/15 09:07:04;;;;;;;;;;;19.50;57.50;;;;;;5023482;28;19917;-71
2021/06/15 09:09:48;;;;;;;;;;;20.20;56.40;;;;;;5020197;28;19948;-71
2021/06/15 09:12:15;;;;;;;;;;;20.80;55.60;;;;;;5012775;28;19917;-69
2021/06/15 09:14:42;;;;;;;;;;;21.30;54.50;;;;;;5019530;28;19940;-70
2021/06/15 09:17:32;;;;;;;;;;;21.20;53.50;;;;;;5018240;28;20385;-71
2021/06/15 09:19:59;;;;;;;;;;;21.00;55.60;;;;;;5007714;28;19939;-71
2021/06/15 09:22:28;;;;;;;;;;;21.00;56.00;;;;;;5022243;28;19965;-69
2021/06/15 09:24:54;;;;;;;;;;;21.40;53.20;;;;;;5015155;28;19928;-71
2021/06/15 09:27:27;;;;;;;;;;;21.40;54.10;;;;;;5019661;28;19972;-70
2021/06/15 09:29:53;;;;;;;;;;;21.70;51.60;;;;;;5024399;28;20288;-70
2021/06/15 09:32:20;;;;;;;;;;;22.30;50.90;;;;;;5012463;28;20011;-71
2021/06/15 09:34:56;;;;;;;;;;;22.30;49.10;;;;;;5009748;28;19913;-70
2021/06/15 09:37:26;;;;;;;;;;;22.40;48.60;;;;;;5010164;28;19913;-70
2021/06/15 09:39:52;;;;;;;;;;;22.20;49.90;;;;;;5013445;28;19921;-71
2021/06/15 09:42:17;;;;;;;;;;;22.50;47.90;;;;;;5009806;28;19936;-70
2021/06/15 09:44:43;;;;;;;;;;;22.20;47.30;;;;;;5017429;28;19917;-71
2021/06/15 09:47:08;;;;;;;;;;;23.20;50.70;;;;;;5022769;28;19925;-69
2021/06/15 09:49:44;;;;;;;;;;;22.90;48.00;;;;;;5019223;28;20401;-70
2021/06/15 09:52:17;;;;;;;;;;;22.50;50.20;;;;;;5016574;28;19951;-71
2021/06/15 09:54:44;;;;;;;;;;;21.80;51.60;;;;;;5017900;28;19982;-69
2021/06/15 09:57:10;;;;;;;;;;;21.50;50.60;;;;;;5021734;28;20123;-71
2021/06/15 09:59:36;;;;;;;;;;;22.00;53.10;;;;;;5018184;28;19913;-70
2021/06/15 10:02:02;;;;;;;;;;;22.50;50.10;;;;;;5018271;28;22034;-70
2021/06/15 10:04:27;;;;;;;;;;;22.90;49.50;;;;;;5021970;28;19917;-71
2021/06/15 10:06:57;;;;;;;;;;;22.50;46.90;;;;;;5010265;28;19921;-71
2021/06/15 10:09:24;;;;;;;;;;;21.70;49.80;;;;;;5010540;28;19975;-69
2021/06/15 10:12:06;;;;;;;;;;;22.10;51.00;;;;;;5018631;28;20308;-72
2021/06/15 10:14:32;;;;;;;;;;;21.50;51.70;;;;;;5011367;28;20227;-71
2021/06/15 10:16:58;;;;;;;;;;;21.70;51.30;;;;;;5016277;28;19928;-70
2021/06/15 10:19:24;;;;;;;;;;;22.00;50.40;;;;;;5018528;28;19928;-71
2021/06/15 10:21:50;;;;;;;;;;;22.50;47.40;;;;;;5017178;28;19951;-70
2021/06/15 10:24:21;;;;;;;;;;;23.40;47.20;;;;;;5016579;28;20389;-70
2021/06/15 10:26:47;;;;;;;;;;;22.70;47.60;;;;;;5019617;28;20003;-70
2021/06/15 10:29:13;;;;;;;;;;;22.50;47.40;;;;;;5019413;28;19917;-71
2021/06/15 10:31:40;;;;;;;;;;;22.50;49.90;;;;;;5018392;28;19932;-71
2021/06/15 10:34:05;;;;;;;;;;;23.00;49.60;;;;;;5022066;28;20019;-70
2021/06/15 10:36:47;;;;;;;;;;;22.80;50.10;;;;;;5017683;28;20020;-70
2021/06/15 10:39:17;;;;;;;;;;;22.70;48.90;;;;;;5012836;28;20304;-72
2021/06/15 10:41:43;;;;;;;;;;;23.10;48.70;;;;;;5017712;28;19912;-71
2021/06/15 10:44:09;;;;;;;;;;;22.70;50.20;;;;;;5021364;28;19929;-71
2021/06/15 10:46:37;;;;;;;;;;;23.40;47.90;;;;;;5019595;28;19973;-71
2021/06/15 10:49:15;;;;;;;;;;;23.30;48.70;;;;;;5014311;28;19989;-70
2021/06/15 10:51:42;;;;;;;;;;;23.90;47.40;;;;;;5010838;28;19914;-71
2021/06/15 10:54:26;;;;;;;;;;;24.30;42.90;;;;;;5016572;28;20262;-73
2021/06/15 10:57:10;;;;;;;;;;;24.20;45.00;;;;;;5012840;28;20012;-72
2021/06/15 10:59:54;;;;;;;;;;;23.90;45.30;;;;;;5012518;28;20204;-70
2021/06/15 11:02:19;;;;;;;;;;;23.70;46.00;;;;;;5016468;28;19917;-70
2021/06/15 11:04:45;;;;;;;;;;;23.90;43.90;;;;;;5018129;28;20024;-71
2021/06/15 11:07:23;;;;;;;;;;;24.10;45.40;;;;;;5015499;28;20000;-71
2021/06/15 11:09:49;;;;;;;;;;;23.90;44.10;;;;;;5010256;28;19971;-72
2021/06/15 11:12:17;;;;;;;;;;;23.80;44.50;;;;;;5019067;28;20468;-72
2021/06/15 11:15:02;;;;;;;;;;;23.80;44.60;;;;;;5015601;28;19925;-70
2021/06/15 11:17:42;;;;;;;;;;;23.40;46.20;;;;;;5018864;28;19982;-72
2021/06/15 11:20:08;;;;;;;;;;;23.50;48.10;;;;;;5021455;28;20342;-70
2021/06/15 11:22:33;;;;;;;;;;;23.00;47.80;;;;;;5023550;28;19989;-71
2021/06/15 11:25:03;;;;;;;;;;;23.50;48.40;;;;;;5024037;28;19917;-70
2021/06/15 11:27:28;;;;;;;;;;;24.50;46.50;;;;;;5023393;28;20389;-70
2021/06/15 11:29:55;;;;;;;;;;;25.10;44.80;;;;;;5021716;28;19917;-70
2021/06/15 11:32:22;;;;;;;;;;;25.70;44.30;;;;;;5024663;28;20403;-73
2021/06/15 11:34:58;;;;;;;;;;;24.50;41.80;;;;;;5024302;28;20265;-70
2021/06/15 11:37:36;;;;;;;;;;;24.90;43.20;;;;;;5019989;28;19917;-71
2021/06/15 11:40:15;;;;;;;;;;;25.20;43.30;;;;;;5022524;28;20004;-71
2021/06/15 11:42:41;;;;;;;;;;;24.50;44.80;;;;;;5022785;28;20008;-71
2021/06/15 11:45:14;;;;;;;;;;;24.00;46.80;;;;;;5023777;28;19958;-71
2021/06/15 11:47:41;;;;;;;;;;;23.90;48.10;;;;;;5024828;28;20315;-71
2021/06/15 11:50:06;;;;;;;;;;;25.00;46.10;;;;;;5022869;28;19983;-70
2021/06/15 11:52:32;;;;;;;;;;;25.90;45.90;;;;;;5024199;28;19917;-71
2021/06/15 11:54:58;;;;;;;;;;;26.70;40.10;;;;;;5021670;28;19913;-72
2021/06/15 11:57:24;;;;;;;;;;;25.90;41.10;;;;;;5024277;28;20007;-71
2021/06/15 11:59:49;;;;;;;;;;;26.40;41.50;;;;;;5023188;28;19932;-72
2021/06/15 12:02:18;;;;;;;;;;;27.10;37.20;;;;;;5011077;28;20406;-69
2021/06/15 12:05:03;;;;;;;;;;;26.70;37.70;;;;;;5018535;28;20391;-69
2021/06/15 12:07:28;;;;;;;;;;;26.60;39.00;;;;;;5018716;28;19921;-70
2021/06/15 12:10:00;;;;;;;;;;;25.60;39.20;;;;;;5023179;28;19944;-69
2021/06/15 12:12:26;;;;;;;;;;;24.80;40.70;;;;;;5017313;28;19913;-69
2021/06/15 12:14:51;;;;;;;;;;;25.60;38.80;;;;;;5021849;28;19960;-69
2021/06/15 12:17:18;;;;;;;;;;;25.20;42.10;;;;;;5022855;28;20281;-69
2021/06/15 12:19:43;;;;;;;;;;;23.70;44.80;;;;;;5019819;28;20087;-69
2021/06/15 12:22:15;;;;;;;;;;;24.80;44.00;;;;;;5021821;28;20068;-70
2021/06/15 12:24:44;;;;;;;;;;;25.10;42.20;;;;;;5020067;28;19979;-68
2021/06/15 12:27:22;;;;;;;;;;;25.60;44.10;;;;;;5020721;28;20346;-69
2021/06/15 12:29:47;;;;;;;;;;;26.20;40.20;;;;;;5020749;28;19970;-69
2021/06/15 12:32:13;;;;;;;;;;;25.30;39.80;;;;;;5021625;28;19923;-70
2021/06/15 12:34:38;;;;;;;;;;;25.00;40.90;;;;;;5020995;28;19992;-69
2021/06/15 12:37:04;;;;;;;;;;;25.00;42.30;;;;;;5020375;28;20096;-70
2021/06/15 12:39:35;;;;;;;;;;;24.80;43.50;;;;;;5019047;28;19921;-69
2021/06/15 12:42:03;;;;;;;;;;;24.90;41.30;;;;;;5021372;28;19954;-69
2021/06/15 12:44:30;;;;;;;;;;;25.70;43.40;;;;;;5019599;28;20404;-69
2021/06/15 12:47:01;;;;;;;;;;;25.50;42.00;;;;;;5020707;28;19952;-68
2021/06/15 12:49:26;;;;;;;;;;;25.00;44.20;;;;;;5021404;28;19921;-69
2021/06/15 12:51:53;;;;;;;;;;;24.60;45.40;;;;;;5020696;28;19920;-69
2021/06/15 12:54:19;;;;;;;;;;;25.00;41.70;;;;;;5021126;28;20440;-70
2021/06/15 12:56:54;;;;;;;;;;;25.50;41.00;;;;;;5019440;28;19913;-69
2021/06/15 12:59:19;;;;;;;;;;;27.00;40.70;;;;;;5020526;28;20338;-67
2021/06/15 13:01:45;;;;;;;;;;;27.30;36.90;;;;;;5020971;28;20000;-70
2021/06/15 13:04:24;;;;;;;;;;;27.30;37.20;;;;;;5019241;28;19913;-69
2021/06/15 13:06:51;;;;;;;;;;;28.50;35.90;;;;;;5020292;28;19913;-67
2021/06/15 13:09:20;;;;;;;;;;;29.20;34.10;;;;;;5020613;28;19917;-69
2021/06/15 13:12:12;;;;;;;;;;;30.10;34.30;;;;;;5018798;28;19913;-70
2021/06/15 13:14:39;;;;;;;;;;;30.20;35.20;;;;;;5016642;28;19921;-69
2021/06/15 13:17:13;;;;;;;;;;;30.00;34.10;;;;;;5021569;28;19928;-71
2021/06/15 13:19:43;;;;;;;;;;;29.80;35.60;;;;;;5022481;28;19923;-70
2021/06/15 13:22:12;;;;;;;;;;;30.20;33.40;;;;;;5021585;28;19913;-70
2021/06/15 13:24:40;;;;;;;;;;;30.40;35.20;;;;;;5019153;28;19973;-69
2021/06/15 13:27:25;;;;;;;;;;;28.30;35.10;;;;;;5020286;28;19936;-69
2021/06/15 13:29:51;;;;;;;;;;;27.50;36.50;;;;;;5018993;28;19982;-66
2021/06/15 13:32:22;;;;;;;;;;;27.30;37.60;;;;;;5017994;28;20300;-69
2021/06/15 13:35:08;;;;;;;;;;;26.40;39.90;;;;;;5018917;28;19990;-69
2021/06/15 13:37:35;;;;;;;;;;;27.80;37.30;;;;;;5015417;28;19914;-69
2021/06/15 13:40:01;;;;;;;;;;;28.00;36.50;;;;;;5015278;28;19920;-69
2021/06/15 13:42:28;;;;;;;;;;;27.00;36.10;;;;;;5021639;28;20293;-70
2021/06/15 13:45:06;;;;;;;;;;;27.20;37.40;;;;;;5017468;28;19917;-69
2021/06/15 13:47:32;;;;;;;;;;;27.30;37.80;;;;;;5021075;28;20135;-68
2021/06/15 13:49:57;;;;;;;;;;;27.30;36.00;;;;;;5020393;28;20372;-69
2021/06/15 13:52:23;;;;;;;;;;;28.90;36.80;;;;;;5019478;28;20358;-69
2021/06/15 13:54:48;;;;;;;;;;;29.40;33.50;;;;;;5015423;28;19921;-69
2021/06/15 13:57:14;;;;;;;;;;;29.00;32.50;;;;;;5021950;28;19974;-70
2021/06/15 13:59:39;;;;;;;;;;;29.70;32.60;;;;;;5019592;28;19928;-69
2021/06/15 14:02:05;;;;;;;;;;;30.60;32.60;;;;;;5024996;28;20085;-69
2021/06/15 14:04:31;;;;;;;;;;;29.40;33.60;;;;;;5020285;28;19924;-69
2021/06/15 14:06:56;;;;;;;;;;;29.30;33.60;;;;;;5021239;28;19913;-69
2021/06/15 14:09:21;;;;;;;;;;;28.20;34.80;;;;;;5019689;28;19928;-67
2021/06/15 14:11:47;;;;;;;;;;;28.60;33.40;;;;;;5019369;28;20018;-68
2021/06/15 14:14:13;;;;;;;;;;;28.40;35.00;;;;;;5016037;28;20325;-69
2021/06/15 14:16:38;;;;;;;;;;;28.00;35.10;;;;;;5020768;28;19913;-69
2021/06/15 14:19:04;;;;;;;;;;;28.50;34.00;;;;;;5019125;28;20012;-70
2021/06/15 14:21:37;;;;;;;;;;;29.00;33.90;;;;;;5019329;28;19936;-68
2021/06/15 14:24:06;;;;;;;;;;;28.00;35.10;;;;;;5018884;28;19929;-69